createdAt,value
2017-11-01T00:02:14.591Z,78.30
2017-11-01T00:04:42.209Z,78.50
2017-11-01T00:07:10.561Z,78.70
2017-11-01T00:09:38.177Z,78.60
2017-11-01T00:12:05.797Z,78.80
2017-11-01T00:14:33.468Z,78.90
2017-11-01T00:17:01.832Z,79.10
2017-11-01T00:19:29.449Z,78.90
2017-11-01T00:21:57.885Z,79.40
2017-11-01T00:24:25.541Z,79.40
2017-11-01T00:26:53.136Z,79.50
2017-11-01T00:29:20.728Z,79.50
2017-11-01T00:31:48.426Z,79.50
2017-11-01T00:34:16.097Z,79.60
2017-11-01T00:36:43.709Z,79.70
2017-11-01T00:39:11.299Z,79.80
2017-11-01T00:41:38.972Z,79.80
2017-11-01T00:44:06.642Z,79.90
2017-11-01T00:46:34.257Z,80.00
2017-11-01T00:49:01.860Z,80.10
2017-11-01T00:51:30.976Z,80.10
2017-11-01T00:53:59.328Z,80.20
2017-11-01T00:56:27.019Z,80.10
2017-11-01T00:58:55.401Z,80.30
2017-11-01T01:01:23.860Z,80.30
2017-11-01T01:03:51.531Z,80.20
2017-11-01T01:06:19.199Z,80.30
2017-11-01T01:08:46.809Z,80.30
2017-11-01T01:11:14.420Z,80.20
2017-11-01T01:13:42.036Z,80.20
2017-11-01T01:16:09.736Z,81.00
2017-11-01T01:18:38.865Z,80.10
2017-11-01T01:21:06.457Z,80.00
2017-11-01T01:23:34.073Z,80.10
2017-11-01T01:26:02.441Z,80.20
2017-11-01T01:28:30.057Z,80.20
2017-11-01T01:30:57.649Z,80.30
2017-11-01T01:33:25.329Z,80.40
2017-11-01T01:35:52.985Z,80.40
2017-11-01T01:38:20.608Z,80.40
2017-11-01T01:40:48.200Z,80.60
2017-11-01T01:43:15.879Z,80.40
2017-11-01T01:45:44.261Z,80.50
2017-11-01T01:48:12.738Z,80.60
2017-11-01T01:50:40.398Z,80.50
2017-11-01T01:53:08.780Z,80.60
2017-11-01T01:55:36.444Z,80.60
2017-11-01T01:58:04.809Z,80.60
2017-11-01T02:00:32.425Z,80.70
2017-11-01T02:03:00.040Z,80.60
2017-11-01T02:05:27.703Z,80.60
2017-11-01T02:07:55.301Z,80.60
2017-11-01T02:10:22.916Z,80.50
2017-11-01T02:12:50.508Z,80.50
2017-11-01T02:15:18.933Z,80.40
2017-11-01T02:17:46.526Z,80.40
2017-11-01T02:20:14.120Z,80.40
2017-11-01T02:22:42.505Z,80.50
2017-11-01T02:25:10.109Z,80.50
2017-11-01T02:27:37.805Z,80.50
2017-11-01T02:30:05.470Z,80.50
2017-11-01T02:32:33.858Z,81.20
2017-11-01T02:35:02.219Z,80.50
2017-11-01T02:37:29.880Z,80.30
2017-11-01T02:39:57.548Z,80.40
2017-11-01T02:42:25.166Z,80.30
2017-11-01T02:44:52.772Z,80.30
2017-11-01T02:47:20.384Z,80.30
2017-11-01T02:49:47.973Z,80.40
2017-11-01T02:52:15.585Z,80.40
2017-11-01T02:54:43.938Z,80.50
2017-11-01T02:57:11.594Z,80.40
2017-11-01T02:59:39.716Z,80.50
2017-11-01T03:02:07.337Z,80.50
2017-11-01T03:04:34.996Z,80.60
2017-11-01T03:07:02.584Z,80.80
2017-11-01T03:09:30.964Z,80.90
2017-11-01T03:11:59.412Z,81.00
2017-11-01T03:14:27.029Z,81.00
2017-11-01T03:16:54.644Z,81.00
2017-11-01T03:19:22.304Z,81.10
2017-11-01T03:21:49.965Z,81.20
2017-11-01T03:24:17.583Z,81.10
2017-11-01T03:26:45.169Z,81.00
2017-11-01T03:29:12.852Z,81.00
2017-11-01T03:31:40.443Z,80.90
2017-11-01T03:34:08.896Z,80.90
2017-11-01T03:36:36.556Z,80.90
2017-11-01T03:39:04.143Z,80.90
2017-11-01T03:41:32.519Z,81.90
2017-11-01T03:44:01.900Z,81.00
2017-11-01T03:46:29.560Z,81.00
2017-11-01T03:48:57.149Z,81.00
2017-11-01T03:51:25.533Z,81.10
2017-11-01T03:53:53.983Z,81.20
2017-11-01T03:56:21.644Z,81.10
2017-11-01T03:58:49.308Z,81.20
2017-11-01T04:01:16.921Z,81.20
2017-11-01T04:03:44.541Z,81.30
2017-11-01T04:06:12.197Z,81.30
2017-11-01T04:08:39.784Z,82.20
2017-11-01T04:11:08.160Z,81.50
2017-11-01T04:13:36.616Z,81.50
2017-11-01T04:16:04.280Z,81.50
2017-11-01T04:21:34.431Z,81.20
2017-11-01T04:24:02.797Z,81.80
2017-11-01T04:26:30.465Z,81.60
2017-11-01T04:28:58.060Z,81.60
2017-11-01T04:31:25.688Z,81.70
2017-11-01T04:33:53.285Z,81.70
2017-11-01T04:36:21.012Z,81.80
2017-11-01T04:38:48.681Z,81.80
2017-11-01T04:41:16.340Z,82.00
2017-11-01T04:43:44.000Z,82.10
2017-11-01T04:46:11.591Z,82.10
2017-11-01T04:48:40.044Z,82.00
2017-11-01T04:51:10.464Z,81.90
2017-11-01T04:53:40.932Z,81.90
2017-11-01T04:56:10.210Z,81.90
2017-11-01T04:58:37.826Z,81.90
2017-11-01T05:01:05.532Z,81.80
2017-11-01T05:03:33.147Z,81.80
2017-11-01T05:06:00.751Z,81.90
2017-11-01T05:08:34.028Z,81.90
2017-11-01T05:11:07.302Z,81.90
2017-11-01T05:16:32.164Z,81.80
2017-11-01T05:18:59.819Z,82.10
2017-11-01T05:21:28.917Z,82.30
2017-11-01T05:23:56.531Z,82.20
2017-11-01T05:26:24.141Z,82.20
2017-11-01T05:28:51.740Z,82.30
2017-11-01T05:31:19.429Z,82.30
2017-11-01T05:33:47.020Z,82.30
2017-11-01T05:36:14.633Z,82.10
2017-11-01T05:38:42.233Z,82.10
2017-11-01T05:41:09.845Z,82.10
2017-11-01T05:43:38.302Z,82.30
2017-11-01T05:46:06.688Z,82.70
2017-11-01T05:48:35.040Z,82.50
2017-11-01T05:51:02.648Z,82.50
2017-11-01T05:53:30.236Z,82.50
2017-11-01T05:55:57.845Z,82.50
2017-11-01T05:58:26.221Z,83.40
2017-11-01T06:00:54.596Z,82.50
2017-11-01T06:03:22.264Z,82.30
2017-11-01T06:05:49.896Z,82.40
2017-11-01T06:08:17.584Z,82.20
2017-11-01T06:10:45.173Z,82.20
2017-11-01T06:13:12.812Z,82.30
2017-11-01T06:15:40.469Z,82.30
2017-11-01T06:18:08.097Z,82.20
2017-11-01T06:20:35.683Z,82.40
2017-11-01T06:23:03.364Z,82.40
2017-11-01T06:25:31.716Z,82.60
2017-11-01T06:27:59.400Z,82.60
2017-11-01T06:30:27.061Z,82.90
2017-11-01T06:32:54.672Z,83.10
2017-11-01T06:35:22.284Z,83.40
2017-11-01T06:37:49.901Z,83.40
2017-11-01T06:40:17.508Z,83.30
2017-11-01T06:42:45.124Z,84.10
2017-11-01T06:45:13.552Z,83.20
2017-11-01T06:47:41.995Z,83.30
2017-11-01T06:50:09.701Z,83.20
2017-11-01T06:52:37.356Z,83.20
2017-11-01T06:55:05.021Z,83.50
2017-11-01T06:57:32.604Z,83.70
2017-11-01T07:00:00.972Z,84.10
2017-11-01T07:02:28.556Z,84.00
2017-11-01T07:04:56.177Z,84.10
2017-11-01T07:07:24.564Z,83.70
2017-11-01T07:09:52.172Z,84.00
2017-11-01T07:12:19.789Z,84.10
2017-11-01T07:14:47.397Z,84.10
2017-11-01T07:17:15.009Z,84.20
2017-11-01T07:19:42.616Z,84.20
2017-11-01T07:22:10.204Z,84.30
2017-11-01T07:24:37.809Z,84.30
2017-11-01T07:27:06.185Z,84.40
2017-11-01T07:29:33.770Z,84.30
2017-11-01T07:32:01.396Z,84.40
2017-11-01T07:34:29.125Z,84.50
2017-11-01T07:36:56.825Z,84.60
2017-11-01T07:39:24.494Z,84.60
2017-11-01T07:41:52.967Z,85.50
2017-11-01T07:44:20.548Z,84.50
2017-11-01T07:46:48.921Z,85.50
2017-11-01T07:49:16.572Z,84.60
2017-11-01T07:51:44.176Z,84.70
2017-11-01T07:54:11.797Z,84.90
2017-11-01T07:56:39.460Z,85.00
2017-11-01T07:59:07.127Z,85.00
2017-11-01T08:01:34.751Z,85.00
2017-11-01T08:04:02.332Z,85.20
2017-11-01T08:06:29.917Z,85.30
2017-11-01T08:08:58.293Z,86.10
2017-11-01T08:11:26.652Z,86.10
2017-11-01T08:13:54.260Z,85.30
2017-11-01T08:16:22.671Z,85.50
2017-11-01T08:18:50.276Z,85.40
2017-11-01T08:21:19.364Z,85.40
2017-11-01T08:23:47.732Z,85.50
2017-11-01T08:26:15.481Z,85.50
2017-11-01T08:28:43.168Z,85.60
2017-11-01T08:31:11.516Z,85.50
2017-11-01T08:33:39.217Z,85.60
2017-11-01T08:36:06.800Z,85.70
2017-11-01T08:38:35.184Z,85.70
2017-11-01T08:41:02.767Z,85.60
2017-11-01T08:43:30.356Z,85.60
2017-11-01T08:45:57.961Z,85.60
2017-11-01T08:48:26.316Z,85.40
2017-11-01T08:50:53.997Z,85.40
2017-11-01T08:53:22.349Z,85.40
2017-11-01T08:55:49.957Z,85.40
2017-11-01T08:58:17.584Z,85.30
2017-11-01T09:00:45.188Z,85.30
2017-11-01T09:03:12.773Z,85.30
2017-11-01T09:05:40.384Z,85.20
2017-11-01T09:08:08.731Z,85.50
2017-11-01T09:10:36.340Z,85.40
2017-11-01T09:13:04.700Z,85.70
2017-11-01T09:15:33.077Z,86.40
2017-11-01T09:18:00.725Z,85.70
2017-11-01T09:20:28.356Z,86.60
2017-11-01T09:22:55.964Z,85.70
2017-11-01T09:25:23.621Z,85.80
2017-11-01T09:27:51.280Z,86.30
2017-11-01T09:30:18.936Z,86.00
2017-11-01T09:32:46.567Z,86.10
2017-11-01T09:35:14.169Z,86.20
2017-11-01T09:37:41.776Z,86.20
2017-11-01T09:40:09.360Z,86.30
2017-11-01T09:42:37.053Z,86.30
2017-11-01T09:45:04.645Z,86.10
2017-11-01T09:47:33.021Z,86.50
2017-11-01T09:50:01.368Z,86.70
2017-11-01T09:52:28.977Z,86.70
2017-11-01T09:54:56.601Z,86.90
2017-11-01T09:57:24.255Z,86.80
2017-11-01T09:59:51.921Z,86.90
2017-11-01T10:02:19.513Z,86.90
2017-11-01T10:04:47.896Z,87.00
2017-11-01T10:07:15.532Z,87.00
2017-11-01T10:09:43.184Z,86.90
2017-11-01T10:12:10.847Z,86.40
2017-11-01T10:14:38.452Z,86.50
2017-11-01T10:17:06.036Z,86.50
2017-11-01T10:19:33.649Z,86.30
2017-11-01T10:22:02.116Z,87.10
2017-11-01T10:24:29.780Z,86.20
2017-11-01T10:26:57.368Z,86.00
2017-11-01T10:29:25.821Z,86.00
2017-11-01T10:31:53.408Z,85.80
2017-11-01T10:34:21.763Z,86.10
2017-11-01T10:36:49.376Z,86.00
2017-11-01T10:39:16.965Z,86.10
2017-11-01T10:41:44.581Z,86.20
2017-11-01T10:44:12.205Z,86.30
2017-11-01T10:46:39.812Z,86.30
2017-11-01T10:49:07.402Z,86.50
2017-11-01T10:51:35.097Z,86.50
2017-11-01T10:54:02.697Z,86.50
2017-11-01T10:56:30.312Z,86.40
2017-11-01T10:58:57.905Z,86.40
2017-11-01T11:01:26.367Z,86.40
2017-11-01T11:03:53.961Z,86.40
2017-11-01T11:06:21.688Z,86.00
2017-11-01T11:08:49.353Z,86.30
2017-11-01T11:11:17.721Z,86.70
2017-11-01T11:13:45.332Z,86.50
2017-11-01T11:16:12.921Z,86.50
2017-11-01T11:18:40.534Z,87.40
2017-11-01T11:21:08.884Z,86.50
2017-11-01T11:23:36.501Z,86.40
2017-11-01T11:26:04.101Z,86.30
2017-11-01T11:28:31.808Z,86.30
2017-11-01T11:31:00.165Z,86.20
2017-11-01T11:33:28.641Z,86.30
2017-11-01T11:35:56.232Z,86.00
2017-11-01T11:38:23.855Z,86.20
2017-11-01T11:40:51.525Z,86.30
2017-11-01T11:43:19.189Z,86.40
2017-11-01T11:45:46.780Z,86.60
2017-11-01T11:48:15.228Z,86.60
2017-11-01T11:50:42.893Z,86.60
2017-11-01T11:53:10.481Z,86.50
2017-11-01T11:55:38.870Z,86.60
2017-11-01T11:58:06.501Z,86.50
2017-11-01T12:00:34.893Z,86.60
2017-11-01T12:03:03.244Z,86.70
2017-11-01T12:05:32.373Z,86.60
2017-11-01T12:08:00.723Z,86.80
2017-11-01T12:10:28.391Z,86.70
2017-11-01T12:12:56.057Z,86.70
2017-11-01T12:15:23.664Z,86.90
2017-11-01T12:17:51.345Z,87.10
2017-11-01T12:20:18.956Z,87.10
2017-11-01T12:22:47.397Z,86.40
2017-11-01T12:25:15.017Z,87.10
2017-11-01T12:27:43.368Z,87.00
2017-11-01T12:30:11.027Z,87.00
2017-11-01T12:32:38.651Z,87.00
2017-11-01T12:35:06.250Z,87.20
2017-11-01T12:37:33.917Z,87.10
2017-11-01T12:40:01.577Z,86.90
2017-11-01T12:42:29.241Z,86.80
2017-11-01T12:44:56.825Z,86.90
2017-11-01T12:47:25.201Z,86.80
2017-11-01T12:49:53.660Z,86.80
2017-11-01T12:52:21.324Z,86.70
2017-11-01T12:54:48.989Z,86.70
2017-11-01T12:57:16.603Z,86.70
2017-11-01T12:59:44.192Z,86.70
2017-11-01T13:02:11.820Z,86.80
2017-11-01T13:04:39.429Z,86.80
2017-11-01T13:07:07.096Z,86.70
2017-11-01T13:09:34.704Z,86.80
2017-11-01T13:12:02.320Z,86.80
2017-11-01T13:14:29.980Z,86.60
2017-11-01T13:16:57.663Z,86.60
2017-11-01T13:19:26.052Z,86.50
2017-11-01T13:21:54.407Z,86.50
2017-11-01T13:24:22.024Z,86.50
2017-11-01T13:26:49.608Z,86.60
2017-11-01T13:29:17.293Z,86.60
2017-11-01T13:31:44.881Z,86.70
2017-11-01T13:34:13.266Z,86.70
2017-11-01T13:36:40.859Z,86.60
2017-11-01T13:39:08.468Z,86.60
2017-11-01T13:41:36.936Z,86.80
2017-11-01T13:44:04.602Z,86.70
2017-11-01T13:46:32.269Z,86.70
2017-11-01T13:48:59.861Z,86.70
2017-11-01T13:51:27.476Z,86.70
2017-11-01T13:53:55.152Z,86.70
2017-11-01T13:56:24.280Z,86.80
2017-11-01T13:58:51.910Z,86.70
2017-11-01T14:01:19.523Z,86.80
2017-11-01T14:03:47.112Z,86.90
2017-11-01T14:06:14.728Z,87.00
2017-11-01T14:08:42.420Z,87.00
2017-11-01T14:11:10.032Z,87.00
2017-11-01T14:13:38.505Z,87.10
2017-11-01T14:16:06.169Z,87.00
2017-11-01T14:18:33.823Z,87.20
2017-11-01T14:21:02.209Z,87.20
2017-11-01T14:23:31.413Z,87.20
2017-11-01T14:25:59.002Z,87.10
2017-11-01T14:28:26.608Z,86.50
2017-11-01T14:30:54.288Z,87.10
2017-11-01T14:33:21.905Z,87.20
2017-11-01T14:35:49.520Z,87.10
2017-11-01T14:38:17.137Z,87.10
2017-11-01T14:40:44.836Z,87.00
2017-11-01T14:43:12.464Z,87.00
2017-11-01T14:45:40.058Z,86.90
2017-11-01T14:48:07.724Z,86.70
2017-11-01T14:50:36.104Z,86.30
2017-11-01T14:53:03.764Z,86.40
2017-11-01T14:55:31.352Z,86.10
2017-11-01T14:57:59.876Z,86.20
2017-11-01T15:00:27.488Z,86.00
2017-11-01T15:02:55.952Z,86.60
2017-11-01T15:05:23.561Z,86.00
2017-11-01T15:07:51.157Z,86.00
2017-11-01T15:10:18.768Z,85.80
2017-11-01T15:12:47.124Z,86.00
2017-11-01T15:15:14.737Z,85.90
2017-11-01T15:17:42.324Z,86.00
2017-11-01T15:20:09.940Z,86.00
2017-11-01T15:22:37.529Z,86.00
2017-11-01T15:25:05.232Z,86.10
2017-11-01T15:27:32.821Z,86.00
2017-11-01T15:30:01.200Z,86.00
2017-11-01T15:32:29.648Z,86.00
2017-11-01T15:34:57.316Z,86.00
2017-11-01T15:37:24.976Z,86.00
2017-11-01T15:39:52.600Z,85.80
2017-11-01T15:42:20.213Z,85.90
2017-11-01T15:44:48.685Z,86.60
2017-11-01T15:47:16.344Z,85.70
2017-11-01T15:49:43.942Z,85.80
2017-11-01T15:52:11.551Z,85.60
2017-11-01T15:54:39.144Z,85.40
2017-11-01T15:57:07.617Z,85.40
2017-11-01T15:59:35.208Z,85.40
2017-11-01T16:02:02.938Z,85.70
2017-11-01T16:04:30.596Z,85.10
2017-11-01T16:06:58.204Z,85.00
2017-11-01T16:09:25.796Z,84.80
2017-11-01T16:11:53.488Z,84.70
2017-11-01T16:14:21.081Z,84.60
2017-11-01T16:16:48.670Z,84.50
2017-11-01T16:19:16.368Z,84.40
2017-11-01T16:21:44.032Z,84.30
2017-11-01T16:24:13.237Z,84.30
2017-11-01T16:26:40.824Z,84.20
2017-11-01T16:29:09.204Z,84.00
2017-11-01T16:31:37.565Z,84.00
2017-11-01T16:34:05.949Z,84.00
2017-11-01T16:36:34.305Z,84.70
2017-11-01T16:39:01.976Z,83.90
2017-11-01T16:41:29.643Z,83.80
2017-11-01T16:43:57.257Z,83.60
2017-11-01T16:46:24.860Z,83.60
2017-11-01T16:48:52.589Z,83.60
2017-11-01T16:51:20.176Z,83.60
2017-11-01T16:53:47.770Z,83.60
2017-11-01T16:56:16.148Z,83.80
2017-11-01T16:58:44.503Z,83.70
2017-11-01T17:01:12.112Z,83.70
2017-11-01T17:03:39.732Z,83.60
2017-11-01T17:06:07.349Z,83.80
2017-11-01T17:08:35.052Z,83.90
2017-11-01T17:11:03.437Z,83.90
2017-11-01T17:13:31.059Z,83.90
2017-11-01T17:15:58.759Z,83.70
2017-11-01T17:18:26.351Z,83.60
2017-11-01T17:20:54.810Z,83.70
2017-11-01T17:23:22.401Z,83.70
2017-11-01T17:25:50.032Z,83.50
2017-11-01T17:28:17.621Z,83.60
2017-11-01T17:30:45.980Z,83.60
2017-11-01T17:33:14.448Z,83.70
2017-11-01T17:35:42.112Z,83.50
2017-11-01T17:38:09.772Z,83.70
2017-11-01T17:40:37.361Z,83.60
2017-11-01T17:43:05.740Z,83.70
2017-11-01T17:45:34.096Z,83.70
2017-11-01T17:48:01.821Z,83.60
2017-11-01T17:50:29.404Z,83.60
2017-11-01T17:52:57.080Z,83.60
2017-11-01T17:55:24.743Z,83.60
2017-11-01T17:57:52.357Z,83.60
2017-11-01T18:00:19.945Z,83.70
2017-11-01T18:02:47.633Z,83.80
2017-11-01T18:05:15.292Z,83.90
2017-11-01T18:07:42.913Z,83.90
2017-11-01T18:10:10.542Z,84.00
2017-11-01T18:12:39.000Z,84.10
2017-11-01T18:15:06.619Z,84.10
2017-11-01T18:17:34.205Z,84.20
2017-11-01T18:20:01.820Z,84.20
2017-11-01T18:22:29.413Z,84.10
2017-11-01T18:24:57.033Z,84.30
2017-11-01T18:27:25.393Z,84.50
2017-11-01T18:29:53.006Z,84.40
2017-11-01T18:32:20.597Z,84.40
2017-11-01T18:34:48.208Z,84.50
2017-11-01T18:37:15.809Z,84.40
2017-11-01T18:39:43.497Z,85.40
2017-11-01T18:42:11.089Z,84.70
2017-11-01T18:44:39.476Z,84.80
2017-11-01T18:47:07.105Z,84.70
2017-11-01T18:49:34.692Z,84.80
2017-11-01T18:52:03.079Z,84.80
2017-11-01T18:54:30.708Z,84.70
2017-11-01T18:56:58.325Z,84.80
2017-11-01T18:59:25.920Z,84.70
2017-11-01T19:01:53.589Z,84.70
2017-11-01T19:04:21.247Z,84.70
2017-11-01T19:06:48.865Z,84.80
2017-11-01T19:09:16.449Z,84.80
2017-11-01T19:11:44.062Z,84.90
2017-11-01T19:14:12.422Z,84.90
2017-11-01T19:16:40.038Z,84.90
2017-11-01T19:19:07.740Z,84.90
2017-11-01T19:21:35.399Z,84.90
2017-11-01T19:24:03.071Z,84.90
2017-11-01T19:26:31.428Z,84.80
2017-11-01T19:28:59.116Z,84.70
2017-11-01T19:31:26.699Z,84.70
2017-11-01T19:33:55.087Z,84.60
2017-11-01T19:36:22.712Z,84.50
2017-11-01T19:38:50.378Z,84.50
2017-11-01T19:41:18.036Z,84.50
2017-11-01T19:43:45.653Z,84.50
2017-11-01T19:46:13.237Z,84.30
2017-11-01T19:48:40.860Z,84.20
2017-11-01T19:51:08.504Z,84.10
2017-11-01T19:53:36.884Z,83.90
2017-11-01T19:56:05.237Z,83.80
2017-11-01T19:58:32.872Z,83.70
2017-11-01T20:01:00.573Z,83.60
2017-11-01T20:03:28.178Z,83.60
2017-11-01T20:05:55.896Z,83.60
2017-11-01T20:08:23.489Z,83.60
2017-11-01T20:10:51.871Z,83.30
2017-11-01T20:13:19.460Z,84.10
2017-11-01T20:15:47.069Z,83.00
2017-11-01T20:18:15.539Z,82.70
2017-11-01T20:20:43.155Z,83.00
2017-11-01T20:23:10.828Z,82.90
2017-11-01T20:25:38.496Z,83.00
2017-11-01T20:28:06.092Z,82.90
2017-11-01T20:30:33.705Z,82.70
2017-11-01T20:33:01.316Z,82.80
2017-11-01T20:35:28.931Z,82.90
2017-11-01T20:37:56.541Z,82.70
2017-11-01T20:40:24.196Z,82.60
2017-11-01T20:42:51.788Z,82.30
2017-11-01T20:45:20.246Z,82.30
2017-11-01T20:47:47.904Z,82.30
2017-11-01T20:50:15.569Z,82.10
2017-11-01T20:52:43.949Z,82.20
2017-11-01T20:55:11.545Z,82.30
2017-11-01T20:57:39.152Z,82.10
2017-11-01T21:00:06.832Z,82.10
2017-11-01T21:02:34.460Z,82.00
2017-11-01T21:05:02.054Z,82.00
2017-11-01T21:07:29.673Z,81.90
2017-11-01T21:09:57.286Z,81.70
2017-11-01T21:12:24.917Z,81.50
2017-11-01T21:14:52.606Z,82.10
2017-11-01T21:17:20.268Z,81.60
2017-11-01T21:19:47.865Z,81.60
2017-11-01T21:22:15.477Z,82.20
2017-11-01T21:24:43.152Z,81.20
2017-11-01T21:27:10.815Z,81.10
2017-11-01T21:29:40.014Z,80.90
2017-11-01T21:32:07.607Z,80.90
2017-11-01T21:34:35.988Z,81.10
2017-11-01T21:37:04.341Z,81.40
2017-11-01T21:39:31.955Z,81.30
2017-11-01T21:41:59.540Z,81.40
2017-11-01T21:44:27.224Z,81.40
2017-11-01T21:46:54.880Z,81.20
2017-11-01T21:49:22.497Z,81.10
2017-11-01T21:51:50.104Z,82.10
2017-11-01T21:54:17.717Z,80.70
2017-11-01T21:56:45.328Z,80.60
2017-11-01T21:59:12.940Z,81.00
2017-11-01T22:01:40.553Z,80.80
2017-11-01T22:04:08.216Z,80.70
2017-11-01T22:06:35.809Z,80.50
2017-11-01T22:09:04.169Z,80.00
2017-11-01T22:11:32.552Z,80.00
2017-11-01T22:14:00.903Z,80.30
2017-11-01T22:16:28.531Z,80.20
2017-11-01T22:18:56.129Z,80.10
2017-11-01T22:21:23.745Z,80.20
2017-11-01T22:23:51.333Z,80.20
2017-11-01T22:26:18.965Z,80.50
2017-11-01T22:28:46.584Z,80.50
2017-11-01T22:31:14.249Z,80.60
2017-11-01T22:33:41.909Z,80.50
2017-11-01T22:36:09.524Z,80.50
2017-11-01T22:38:37.141Z,80.50
2017-11-01T22:41:05.555Z,81.20
2017-11-01T22:43:33.162Z,80.50
2017-11-01T22:46:00.765Z,80.60
2017-11-01T22:48:29.220Z,80.90
2017-11-01T22:50:58.312Z,81.10
2017-11-01T22:53:25.919Z,81.20
2017-11-01T22:55:53.513Z,81.30
2017-11-01T22:58:21.126Z,81.50
2017-11-01T23:00:49.484Z,81.80
2017-11-01T23:03:17.103Z,81.70
2017-11-01T23:05:44.689Z,82.10
2017-11-01T23:08:12.297Z,82.30
2017-11-01T23:10:39.888Z,82.50
2017-11-01T23:13:07.508Z,82.50
2017-11-01T23:15:35.968Z,82.60
2017-11-01T23:18:03.632Z,82.50
2017-11-01T23:20:31.229Z,82.60
2017-11-01T23:22:58.821Z,82.70
2017-11-01T23:25:26.517Z,82.80
2017-11-01T23:27:54.185Z,82.90
2017-11-01T23:30:21.803Z,83.10
2017-11-01T23:32:49.392Z,83.10
2017-11-01T23:35:17.064Z,83.10
2017-11-01T23:37:44.659Z,83.20
2017-11-01T23:40:12.281Z,83.20
2017-11-01T23:42:39.948Z,83.10
2017-11-01T23:45:07.613Z,83.10
2017-11-01T23:47:35.208Z,83.20
2017-11-01T23:50:03.591Z,83.50
2017-11-01T23:52:31.220Z,83.40
2017-11-01T23:54:58.841Z,83.60
2017-11-01T23:57:26.434Z,83.80
2017-11-01T23:59:54.025Z,84.00
